Des Moines International Airport
KDSM : now visible

Airfield :











YOU CAN JOIN US ON...

 
LOGIN :

Register | Disclaimer

   EN    FR    IT 

 









Legend :    VFR   Marginal VFR   IFR   Intensive IFR   Very Intensive IFR
Visi :
Ceiling :
>= 8 km
>= 3000ft
5 to 8 km
1000 to 3000 ft
1500m to 5 km
500 to 1000 ft
800 to 1500m
200 to 500 ft
< 800m
< 200 ft
Symbols :   Thunderstorms  Fog  Heavy snow  Heavy precipitations  Wind > 20 kt






- Airport Elevation : 958 ft
- IATA code : DSM


KDSM - Des Moines International

CURRENT METAR :
  • 150254Z 14009KT 10SM FEW250 11/04 A2988 RMK AO2 SLP121 T01060044 58006

EXPIRED METARs :
  • 150154Z 14008KT 10SM CLR 12/04 A2988 RMK AO2 SLP123 T01170039
  • 150054Z 14009KT 10SM CLR 13/04 A2990 RMK AO2 SLP128 T01330039

TAF KDSM
Valid from the 15 at 00:00 until the 16 at 00:00 UTC


142334Z 1500/1524 14012KT P6SM FEW250
FM150300 15006KT P6SM FEW250 WS018/19040KT
FM150800 19007KT P6SM SCT200
FM151100 27009KT P6SM FEW250
FM151500 31015G23KT P6SM FEW250
FM151900 31019G30KT P6SM SCT200



MET'MAP, your aeronautical weather chart ! - Copyright ORBIFLY December 2007 - Disclaimer

ORBIFLY MET'MAP TEAM :

Programming & Development : Alexandra Zaïnal
Concept & Development : Baudouin d'Aumeries
Co-Development & Prog : Marc-Olivier Méhu
Technical & hardware support : Manuel Goepfert

Contact : metmap@orbifly.com




SOURCES & CREDITS :

   NOAA       Earth
Advisory